Krugersdorp, South Africa
Current Conditions -  °F | °C
As of 2:00 PM on Thursday 18 Dec 2014 (Local Time) from FALA Reporting Station
Thunderstorm Thunderstorm  
Wind Chill: 77°   Ceiling: Unl
Heat Index: 79°   Visibility: 6mi
Dew Point: 57°   Wind: 8mph
Humidity: 50%   Direction: 320°NW
Pressure: 30.06"   Gusts: NA
Location:  26.09°S, 27.77°E
Report Text: FALA 181200Z 32007KT 240V350 9999 VCTS SCT030 FEW035TCU 25/14 Q1018 NOSIG
Loading
Personal Weather Stations






























Interactive Weather Map New forecast layout! Learn more

10-Day Weather Forecast

Advertisements
Track Severe Weather on mobile